sensor_id;sensor_type;location;lat;lon;timestamp;temperature;humidity
3488;DHT22;38546;48.170;11.724;2023-05-07T00:02:21;12.90;99.90
3488;DHT22;38546;48.170;11.724;2023-05-07T00:05:11;12.80;99.90
3488;DHT22;38546;48.170;11.724;2023-05-07T00:08:01;12.80;99.90
3488;DHT22;38546;48.170;11.724;2023-05-07T00:10:50;12.80;99.90
3488;DHT22;38546;48.170;11.724;2023-05-07T00:13:39;12.80;99.90
3488;DHT22;38546;48.170;11.724;2023-05-07T00:16:28;12.80;99.90
3488;DHT22;38546;48.170;11.724;2023-05-07T00:19:17;12.70;99.90
3488;DHT22;38546;48.170;11.724;2023-05-07T00:22:07;12.70;99.90
3488;DHT22;38546;48.170;11.724;2023-05-07T00:24:57;12.60;99.90
3488;DHT22;38546;48.170;11.724;2023-05-07T00:27:46;12.60;99.90
3488;DHT22;38546;48.170;11.724;2023-05-07T00:30:35;12.60;99.90
3488;DHT22;38546;48.170;11.724;2023-05-07T00:33:25;12.60;99.90
3488;DHT22;38546;48.170;11.724;2023-05-07T00:36:15;12.70;99.90
3488;DHT22;38546;48.170;11.724;2023-05-07T00:39:04;12.60;99.90
3488;DHT22;38546;48.170;11.724;2023-05-07T00:41:53;12.60;99.90
3488;DHT22;38546;48.170;11.724;2023-05-07T00:44:43;12.50;99.90
3488;DHT22;38546;48.170;11.724;2023-05-07T00:47:32;12.50;99.90
3488;DHT22;38546;48.170;11.724;2023-05-07T00:50:22;12.50;99.90
3488;DHT22;38546;48.170;11.724;2023-05-07T00:53:12;12.50;99.90
3488;DHT22;38546;48.170;11.724;2023-05-07T00:56:01;12.40;99.90
3488;DHT22;38546;48.170;11.724;2023-05-07T00:58:51;12.40;99.90
3488;DHT22;38546;48.170;11.724;2023-05-07T01:01:41;12.40;99.90
3488;DHT22;38546;48.170;11.724;2023-05-07T01:04:30;12.30;99.90
3488;DHT22;38546;48.170;11.724;2023-05-07T01:07:19;12.30;99.90
3488;DHT22;38546;48.170;11.724;2023-05-07T01:10:10;12.30;99.90
3488;DHT22;38546;48.170;11.724;2023-05-07T01:13:00;12.30;99.90
3488;DHT22;38546;48.170;11.724;2023-05-07T01:15:50;12.30;99.90
3488;DHT22;38546;48.170;11.724;2023-05-07T01:18:40;12.30;99.90
3488;DHT22;38546;48.170;11.724;2023-05-07T01:21:32;12.40;99.90
3488;DHT22;38546;48.170;11.724;2023-05-07T01:24:23;12.40;99.90
3488;DHT22;38546;48.170;11.724;2023-05-07T01:27:12;12.40;99.90
3488;DHT22;38546;48.170;11.724;2023-05-07T01:30:06;12.40;99.90
3488;DHT22;38546;48.170;11.724;2023-05-07T01:33:06;12.40;99.90
3488;DHT22;38546;48.170;11.724;2023-05-07T01:35:59;12.30;99.90
3488;DHT22;38546;48.170;11.724;2023-05-07T01:38:53;12.30;99.90
3488;DHT22;38546;48.170;11.724;2023-05-07T01:41:43;12.30;99.90
3488;DHT22;38546;48.170;11.724;2023-05-07T01:44:32;12.30;99.90
3488;DHT22;38546;48.170;11.724;2023-05-07T01:47:23;12.30;99.90
3488;DHT22;38546;48.170;11.724;2023-05-07T01:50:16;12.30;99.90
3488;DHT22;38546;48.170;11.724;2023-05-07T01:53:07;12.30;99.90
3488;DHT22;38546;48.170;11.724;2023-05-07T01:55:56;12.30;99.90
3488;DHT22;38546;48.170;11.724;2023-05-07T01:58:46;12.20;99.90
3488;DHT22;38546;48.170;11.724;2023-05-07T02:01:35;12.20;99.90
3488;DHT22;38546;48.170;11.724;2023-05-07T02:04:25;12.20;99.90
3488;DHT22;38546;48.170;11.724;2023-05-07T02:07:14;12.20;99.90
3488;DHT22;38546;48.170;11.724;2023-05-07T02:10:04;12.20;99.90
3488;DHT22;38546;48.170;11.724;2023-05-07T02:12:53;12.10;99.90
3488;DHT22;38546;48.170;11.724;2023-05-07T02:15:43;12.10;99.90
3488;DHT22;38546;48.170;11.724;2023-05-07T02:18:36;12.10;99.90
3488;DHT22;38546;48.170;11.724;2023-05-07T02:21:25;12.10;99.90
3488;DHT22;38546;48.170;11.724;2023-05-07T02:24:15;12.10;99.90
3488;DHT22;38546;48.170;11.724;2023-05-07T02:27:04;12.10;99.90
3488;DHT22;38546;48.170;11.724;2023-05-07T02:29:54;12.10;99.90
3488;DHT22;38546;48.170;11.724;2023-05-07T02:32:43;12.10;99.90
3488;DHT22;38546;48.170;11.724;2023-05-07T02:35:32;12.10;99.90
3488;DHT22;38546;48.170;11.724;2023-05-07T02:38:22;12.10;99.90
3488;DHT22;38546;48.170;11.724;2023-05-07T02:41:12;12.10;99.90
3488;DHT22;38546;48.170;11.724;2023-05-07T02:44:01;12.10;99.90
3488;DHT22;38546;48.170;11.724;2023-05-07T02:46:50;12.10;99.90
3488;DHT22;38546;48.170;11.724;2023-05-07T02:49:39;12.10;99.90
3488;DHT22;38546;48.170;11.724;2023-05-07T02:52:28;12.10;99.90
3488;DHT22;38546;48.170;11.724;2023-05-07T02:55:17;12.10;99.90
3488;DHT22;38546;48.170;11.724;2023-05-07T02:58:07;12.10;99.90
3488;DHT22;38546;48.170;11.724;2023-05-07T03:00:56;12.10;99.90
3488;DHT22;38546;48.170;11.724;2023-05-07T03:03:46;12.00;99.90
3488;DHT22;38546;48.170;11.724;2023-05-07T03:06:35;12.00;99.90
3488;DHT22;38546;48.170;11.724;2023-05-07T03:09:25;12.00;99.90
3488;DHT22;38546;48.170;11.724;2023-05-07T03:12:14;12.00;99.90
3488;DHT22;38546;48.170;11.724;2023-05-07T03:15:04;12.00;99.90
3488;DHT22;38546;48.170;11.724;2023-05-07T03:17:55;12.00;99.90
3488;DHT22;38546;48.170;11.724;2023-05-07T03:20:44;12.00;99.90
3488;DHT22;38546;48.170;11.724;2023-05-07T03:23:33;12.00;99.90
3488;DHT22;38546;48.170;11.724;2023-05-07T03:26:22;11.90;99.90
3488;DHT22;38546;48.170;11.724;2023-05-07T03:29:12;11.90;99.90
3488;DHT22;38546;48.170;11.724;2023-05-07T03:32:01;11.90;99.90
3488;DHT22;38546;48.170;11.724;2023-05-07T03:34:50;11.90;99.90
3488;DHT22;38546;48.170;11.724;2023-05-07T03:37:39;11.90;99.90
3488;DHT22;38546;48.170;11.724;2023-05-07T03:40:29;11.80;99.90
3488;DHT22;38546;48.170;11.724;2023-05-07T03:43:19;11.80;99.90
3488;DHT22;38546;48.170;11.724;2023-05-07T03:46:09;11.80;99.90
3488;DHT22;38546;48.170;11.724;2023-05-07T03:48:58;11.70;99.90
3488;DHT22;38546;48.170;11.724;2023-05-07T03:51:48;11.70;99.90
3488;DHT22;38546;48.170;11.724;2023-05-07T03:54:37;11.70;99.90
3488;DHT22;38546;48.170;11.724;2023-05-07T03:57:26;11.70;99.90
3488;DHT22;38546;48.170;11.724;2023-05-07T04:00:16;11.70;99.90
3488;DHT22;38546;48.170;11.724;2023-05-07T04:03:06;11.60;99.90
3488;DHT22;38546;48.170;11.724;2023-05-07T04:05:55;11.60;99.90
3488;DHT22;38546;48.170;11.724;2023-05-07T04:08:44;11.60;99.90
3488;DHT22;38546;48.170;11.724;2023-05-07T04:11:35;11.60;99.90
3488;DHT22;38546;48.170;11.724;2023-05-07T04:14:25;11.60;99.90
3488;DHT22;38546;48.170;11.724;2023-05-07T04:17:14;11.60;99.90
3488;DHT22;38546;48.170;11.724;2023-05-07T04:20:04;11.60;99.90
3488;DHT22;38546;48.170;11.724;2023-05-07T04:22:56;11.60;99.90
3488;DHT22;38546;48.170;11.724;2023-05-07T04:25:45;11.60;99.90
3488;DHT22;38546;48.170;11.724;2023-05-07T04:28:35;11.70;99.90
3488;DHT22;38546;48.170;11.724;2023-05-07T04:31:23;11.70;99.90
3488;DHT22;38546;48.170;11.724;2023-05-07T04:34:13;11.70;99.90
3488;DHT22;38546;48.170;11.724;2023-05-07T04:37:03;11.70;99.90
3488;DHT22;38546;48.170;11.724;2023-05-07T04:39:52;11.80;99.90
3488;DHT22;38546;48.170;11.724;2023-05-07T04:42:41;11.80;99.90
3488;DHT22;38546;48.170;11.724;2023-05-07T04:45:31;11.90;99.90
3488;DHT22;38546;48.170;11.724;2023-05-07T04:48:20;11.90;99.90
3488;DHT22;38546;48.170;11.724;2023-05-07T04:51:09;12.00;99.90
3488;DHT22;38546;48.170;11.724;2023-05-07T04:53:59;12.00;99.90
3488;DHT22;38546;48.170;11.724;2023-05-07T04:56:48;12.10;99.90
3488;DHT22;38546;48.170;11.724;2023-05-07T04:59:37;12.10;99.90
3488;DHT22;38546;48.170;11.724;2023-05-07T05:02:26;12.20;99.90
3488;DHT22;38546;48.170;11.724;2023-05-07T05:05:15;12.40;99.90
3488;DHT22;38546;48.170;11.724;2023-05-07T05:08:05;12.40;99.90
3488;DHT22;38546;48.170;11.724;2023-05-07T05:10:54;12.30;99.90
3488;DHT22;38546;48.170;11.724;2023-05-07T05:13:44;12.10;99.90
3488;DHT22;38546;48.170;11.724;2023-05-07T05:16:34;12.30;99.90
3488;DHT22;38546;48.170;11.724;2023-05-07T05:19:23;12.30;99.90
3488;DHT22;38546;48.170;11.724;2023-05-07T05:22:12;12.30;99.90
3488;DHT22;38546;48.170;11.724;2023-05-07T05:25:01;12.40;99.90
3488;DHT22;38546;48.170;11.724;2023-05-07T05:27:50;12.40;99.90
3488;DHT22;38546;48.170;11.724;2023-05-07T05:30:39;12.50;99.90
3488;DHT22;38546;48.170;11.724;2023-05-07T05:33:29;12.60;99.90
3488;DHT22;38546;48.170;11.724;2023-05-07T05:36:19;12.60;99.90
3488;DHT22;38546;48.170;11.724;2023-05-07T05:39:08;12.70;99.90
3488;DHT22;38546;48.170;11.724;2023-05-07T05:41:57;12.80;99.90
3488;DHT22;38546;48.170;11.724;2023-05-07T05:44:46;12.90;99.90
3488;DHT22;38546;48.170;11.724;2023-05-07T05:47:37;12.90;99.90
3488;DHT22;38546;48.170;11.724;2023-05-07T05:50:27;13.00;99.90
3488;DHT22;38546;48.170;11.724;2023-05-07T05:53:16;13.10;99.90
3488;DHT22;38546;48.170;11.724;2023-05-07T05:56:06;13.20;99.90
3488;DHT22;38546;48.170;11.724;2023-05-07T05:58:55;13.40;99.90
3488;DHT22;38546;48.170;11.724;2023-05-07T06:01:45;13.50;99.90
3488;DHT22;38546;48.170;11.724;2023-05-07T06:04:34;13.60;99.90
3488;DHT22;38546;48.170;11.724;2023-05-07T06:07:23;13.80;99.90
3488;DHT22;38546;48.170;11.724;2023-05-07T06:10:12;13.90;99.90
3488;DHT22;38546;48.170;11.724;2023-05-07T06:13:01;14.10;99.90
3488;DHT22;38546;48.170;11.724;2023-05-07T06:15:50;14.30;99.90
3488;DHT22;38546;48.170;11.724;2023-05-07T06:18:40;14.40;99.90
3488;DHT22;38546;48.170;11.724;2023-05-07T06:21:29;14.60;99.90
3488;DHT22;38546;48.170;11.724;2023-05-07T06:24:19;14.80;99.90
3488;DHT22;38546;48.170;11.724;2023-05-07T06:27:09;15.00;99.90
3488;DHT22;38546;48.170;11.724;2023-05-07T06:29:58;15.30;99.90
3488;DHT22;38546;48.170;11.724;2023-05-07T06:32:47;15.50;99.90
3488;DHT22;38546;48.170;11.724;2023-05-07T06:35:36;15.80;99.90
3488;DHT22;38546;48.170;11.724;2023-05-07T06:38:25;16.10;99.90
3488;DHT22;38546;48.170;11.724;2023-05-07T06:41:14;16.30;99.90
3488;DHT22;38546;48.170;11.724;2023-05-07T06:44:04;16.50;99.90
3488;DHT22;38546;48.170;11.724;2023-05-07T06:46:53;16.80;99.90
3488;DHT22;38546;48.170;11.724;2023-05-07T06:49:42;17.00;99.90
3488;DHT22;38546;48.170;11.724;2023-05-07T06:52:31;17.20;99.90
3488;DHT22;38546;48.170;11.724;2023-05-07T06:55:20;17.40;99.90
3488;DHT22;38546;48.170;11.724;2023-05-07T06:58:09;17.70;99.90
3488;DHT22;38546;48.170;11.724;2023-05-07T07:00:58;17.80;99.90
3488;DHT22;38546;48.170;11.724;2023-05-07T07:03:47;18.00;99.90
3488;DHT22;38546;48.170;11.724;2023-05-07T07:06:36;18.10;99.90
3488;DHT22;38546;48.170;11.724;2023-05-07T07:09:25;18.10;99.90
3488;DHT22;38546;48.170;11.724;2023-05-07T07:12:14;18.20;99.90
3488;DHT22;38546;48.170;11.724;2023-05-07T07:15:03;18.20;99.90
3488;DHT22;38546;48.170;11.724;2023-05-07T07:17:53;18.30;99.90
3488;DHT22;38546;48.170;11.724;2023-05-07T07:20:42;18.40;99.90
3488;DHT22;38546;48.170;11.724;2023-05-07T07:23:33;18.50;99.90
3488;DHT22;38546;48.170;11.724;2023-05-07T07:26:22;18.50;99.90
3488;DHT22;38546;48.170;11.724;2023-05-07T07:29:11;18.70;99.90
3488;DHT22;38546;48.170;11.724;2023-05-07T07:32:01;18.80;99.90
3488;DHT22;38546;48.170;11.724;2023-05-07T07:34:50;19.00;99.90
3488;DHT22;38546;48.170;11.724;2023-05-07T07:37:39;19.30;99.90
3488;DHT22;38546;48.170;11.724;2023-05-07T07:40:28;19.10;99.90
3488;DHT22;38546;48.170;11.724;2023-05-07T07:43:17;19.10;99.90
3488;DHT22;38546;48.170;11.724;2023-05-07T07:46:06;19.30;99.90
3488;DHT22;38546;48.170;11.724;2023-05-07T07:48:55;19.20;99.90
3488;DHT22;38546;48.170;11.724;2023-05-07T07:51:47;19.20;99.90
3488;DHT22;38546;48.170;11.724;2023-05-07T07:54:36;19.20;99.90
3488;DHT22;38546;48.170;11.724;2023-05-07T07:57:25;19.30;99.90
3488;DHT22;38546;48.170;11.724;2023-05-07T08:00:15;19.40;99.90
3488;DHT22;38546;48.170;11.724;2023-05-07T08:03:05;19.50;99.90
3488;DHT22;38546;48.170;11.724;2023-05-07T08:05:56;19.60;99.90
3488;DHT22;38546;48.170;11.724;2023-05-07T08:08:45;19.70;99.90
3488;DHT22;38546;48.170;11.724;2023-05-07T08:11:35;19.90;99.90
3488;DHT22;38546;48.170;11.724;2023-05-07T08:14:24;20.10;99.90
3488;DHT22;38546;48.170;11.724;2023-05-07T08:17:13;20.20;99.90
3488;DHT22;38546;48.170;11.724;2023-05-07T08:20:06;20.10;99.90
3488;DHT22;38546;48.170;11.724;2023-05-07T08:22:56;20.20;99.90
3488;DHT22;38546;48.170;11.724;2023-05-07T08:25:45;20.30;99.90
3488;DHT22;38546;48.170;11.724;2023-05-07T08:28:35;20.60;99.90
3488;DHT22;38546;48.170;11.724;2023-05-07T08:31:24;20.50;99.90
3488;DHT22;38546;48.170;11.724;2023-05-07T08:34:14;20.50;99.90
3488;DHT22;38546;48.170;11.724;2023-05-07T08:37:03;20.60;99.90
3488;DHT22;38546;48.170;11.724;2023-05-07T08:39:53;20.50;99.90
3488;DHT22;38546;48.170;11.724;2023-05-07T08:42:44;20.20;99.90
3488;DHT22;38546;48.170;11.724;2023-05-07T08:45:39;20.40;99.90
3488;DHT22;38546;48.170;11.724;2023-05-07T08:48:29;20.70;99.90
3488;DHT22;38546;48.170;11.724;2023-05-07T08:51:21;20.60;99.90
3488;DHT22;38546;48.170;11.724;2023-05-07T08:54:11;20.50;99.90
3488;DHT22;38546;48.170;11.724;2023-05-07T08:57:00;20.20;99.90
3488;DHT22;38546;48.170;11.724;2023-05-07T08:59:50;20.60;99.90
3488;DHT22;38546;48.170;11.724;2023-05-07T09:02:39;20.70;99.90
3488;DHT22;38546;48.170;11.724;2023-05-07T09:05:29;20.60;99.90
3488;DHT22;38546;48.170;11.724;2023-05-07T09:08:24;20.80;99.90
3488;DHT22;38546;48.170;11.724;2023-05-07T09:11:15;20.90;99.90
3488;DHT22;38546;48.170;11.724;2023-05-07T09:14:04;21.00;99.90
3488;DHT22;38546;48.170;11.724;2023-05-07T09:16:54;21.30;99.90
3488;DHT22;38546;48.170;11.724;2023-05-07T09:19:47;20.90;99.90
3488;DHT22;38546;48.170;11.724;2023-05-07T09:22:37;21.30;99.90
3488;DHT22;38546;48.170;11.724;2023-05-07T09:25:31;21.30;99.90
3488;DHT22;38546;48.170;11.724;2023-05-07T09:28:22;21.20;99.90
3488;DHT22;38546;48.170;11.724;2023-05-07T09:31:11;21.30;99.90
3488;DHT22;38546;48.170;11.724;2023-05-07T09:34:01;21.30;99.90
3488;DHT22;38546;48.170;11.724;2023-05-07T09:36:50;21.50;99.90
3488;DHT22;38546;48.170;11.724;2023-05-07T09:39:47;21.70;99.90
3488;DHT22;38546;48.170;11.724;2023-05-07T09:42:38;22.20;99.90
3488;DHT22;38546;48.170;11.724;2023-05-07T09:45:28;22.40;99.90
3488;DHT22;38546;48.170;11.724;2023-05-07T09:48:18;21.90;99.90
3488;DHT22;38546;48.170;11.724;2023-05-07T09:51:24;22.00;99.90
3488;DHT22;38546;48.170;11.724;2023-05-07T09:54:18;22.20;99.90
3488;DHT22;38546;48.170;11.724;2023-05-07T09:57:10;22.10;99.90
3488;DHT22;38546;48.170;11.724;2023-05-07T10:00:02;22.00;99.90
3488;DHT22;38546;48.170;11.724;2023-05-07T10:02:56;22.00;99.90
3488;DHT22;38546;48.170;11.724;2023-05-07T10:05:46;22.50;99.90
3488;DHT22;38546;48.170;11.724;2023-05-07T10:08:37;22.40;99.90
3488;DHT22;38546;48.170;11.724;2023-05-07T10:11:26;22.20;99.90
3488;DHT22;38546;48.170;11.724;2023-05-07T10:14:16;21.60;99.90
3488;DHT22;38546;48.170;11.724;2023-05-07T10:17:07;22.20;99.90
3488;DHT22;38546;48.170;11.724;2023-05-07T10:19:57;22.30;99.90
3488;DHT22;38546;48.170;11.724;2023-05-07T10:22:48;22.60;99.90
3488;DHT22;38546;48.170;11.724;2023-05-07T10:25:39;22.60;99.90
3488;DHT22;38546;48.170;11.724;2023-05-07T10:28:30;22.80;99.90
3488;DHT22;38546;48.170;11.724;2023-05-07T10:34:56;21.70;99.90
3488;DHT22;38546;48.170;11.724;2023-05-07T10:37:48;21.30;99.90
3488;DHT22;38546;48.170;11.724;2023-05-07T10:40:38;21.30;99.90
3488;DHT22;38546;48.170;11.724;2023-05-07T10:43:39;21.60;99.90
3488;DHT22;38546;48.170;11.724;2023-05-07T10:46:32;21.70;99.90
3488;DHT22;38546;48.170;11.724;2023-05-07T10:49:24;21.70;99.90
3488;DHT22;38546;48.170;11.724;2023-05-07T10:52:20;21.50;99.90
3488;DHT22;38546;48.170;11.724;2023-05-07T10:55:19;21.70;99.90
3488;DHT22;38546;48.170;11.724;2023-05-07T10:58:24;22.10;99.90
3488;DHT22;38546;48.170;11.724;2023-05-07T11:01:50;22.00;99.90
3488;DHT22;38546;48.170;11.724;2023-05-07T11:05:23;22.10;99.90
3488;DHT22;38546;48.170;11.724;2023-05-07T11:08:12;22.80;99.90
3488;DHT22;38546;48.170;11.724;2023-05-07T11:11:02;22.50;99.90
3488;DHT22;38546;48.170;11.724;2023-05-07T11:13:51;22.50;99.90
3488;DHT22;38546;48.170;11.724;2023-05-07T11:16:42;22.30;99.90
3488;DHT22;38546;48.170;11.724;2023-05-07T11:19:55;22.00;99.90
3488;DHT22;38546;48.170;11.724;2023-05-07T11:22:45;22.40;99.90
3488;DHT22;38546;48.170;11.724;2023-05-07T11:25:34;22.20;99.90
3488;DHT22;38546;48.170;11.724;2023-05-07T11:28:24;22.00;99.90
3488;DHT22;38546;48.170;11.724;2023-05-07T11:31:14;22.00;99.90
3488;DHT22;38546;48.170;11.724;2023-05-07T11:34:14;22.30;99.90
3488;DHT22;38546;48.170;11.724;2023-05-07T11:37:04;22.30;99.90
3488;DHT22;38546;48.170;11.724;2023-05-07T11:40:07;21.90;99.90
3488;DHT22;38546;48.170;11.724;2023-05-07T11:42:59;21.90;99.90
3488;DHT22;38546;48.170;11.724;2023-05-07T11:45:49;22.10;99.90
3488;DHT22;38546;48.170;11.724;2023-05-07T11:48:39;22.20;99.90
3488;DHT22;38546;48.170;11.724;2023-05-07T11:51:28;21.90;99.90
3488;DHT22;38546;48.170;11.724;2023-05-07T11:54:18;21.90;99.90
3488;DHT22;38546;48.170;11.724;2023-05-07T11:57:14;22.10;99.90
3488;DHT22;38546;48.170;11.724;2023-05-07T12:00:05;22.20;99.90
3488;DHT22;38546;48.170;11.724;2023-05-07T12:02:55;22.40;99.90
3488;DHT22;38546;48.170;11.724;2023-05-07T12:05:45;22.60;99.90
3488;DHT22;38546;48.170;11.724;2023-05-07T12:08:39;22.50;99.90
3488;DHT22;38546;48.170;11.724;2023-05-07T12:11:30;23.00;99.90
3488;DHT22;38546;48.170;11.724;2023-05-07T12:14:19;22.70;99.90
3488;DHT22;38546;48.170;11.724;2023-05-07T12:17:13;22.90;99.90
3488;DHT22;38546;48.170;11.724;2023-05-07T12:20:04;23.00;99.90
3488;DHT22;38546;48.170;11.724;2023-05-07T12:22:54;22.80;99.90
3488;DHT22;38546;48.170;11.724;2023-05-07T12:25:44;22.70;99.90
3488;DHT22;38546;48.170;11.724;2023-05-07T12:28:38;22.80;99.90
3488;DHT22;38546;48.170;11.724;2023-05-07T12:31:28;22.80;99.90
3488;DHT22;38546;48.170;11.724;2023-05-07T12:34:17;22.90;99.90
3488;DHT22;38546;48.170;11.724;2023-05-07T12:37:06;22.60;99.90
3488;DHT22;38546;48.170;11.724;2023-05-07T12:40:09;22.00;99.90
3488;DHT22;38546;48.170;11.724;2023-05-07T12:43:00;22.10;99.90
3488;DHT22;38546;48.170;11.724;2023-05-07T12:45:51;22.00;99.90
3488;DHT22;38546;48.170;11.724;2023-05-07T12:48:45;22.50;99.90
3488;DHT22;38546;48.170;11.724;2023-05-07T12:51:35;22.50;99.90
3488;DHT22;38546;48.170;11.724;2023-05-07T12:54:33;22.30;99.90
3488;DHT22;38546;48.170;11.724;2023-05-07T12:57:23;22.20;99.90
3488;DHT22;38546;48.170;11.724;2023-05-07T13:00:13;22.30;99.90
3488;DHT22;38546;48.170;11.724;2023-05-07T13:03:03;22.40;99.90
3488;DHT22;38546;48.170;11.724;2023-05-07T13:05:55;22.00;99.90
3488;DHT22;38546;48.170;11.724;2023-05-07T13:08:46;21.60;99.90
3488;DHT22;38546;48.170;11.724;2023-05-07T13:11:35;22.10;99.90
3488;DHT22;38546;48.170;11.724;2023-05-07T13:14:25;22.30;99.90
3488;DHT22;38546;48.170;11.724;2023-05-07T13:17:14;22.40;99.90
3488;DHT22;38546;48.170;11.724;2023-05-07T13:20:03;22.30;99.90
3488;DHT22;38546;48.170;11.724;2023-05-07T13:22:54;22.70;99.90
3488;DHT22;38546;48.170;11.724;2023-05-07T13:25:44;22.80;99.90
3488;DHT22;38546;48.170;11.724;2023-05-07T13:28:33;22.50;99.90
3488;DHT22;38546;48.170;11.724;2023-05-07T13:31:23;21.90;99.90
3488;DHT22;38546;48.170;11.724;2023-05-07T13:34:13;21.90;99.90
3488;DHT22;38546;48.170;11.724;2023-05-07T13:37:03;22.20;99.90
3488;DHT22;38546;48.170;11.724;2023-05-07T13:39:52;22.40;99.90
3488;DHT22;38546;48.170;11.724;2023-05-07T13:42:41;22.50;99.90
3488;DHT22;38546;48.170;11.724;2023-05-07T13:45:30;22.10;99.90
3488;DHT22;38546;48.170;11.724;2023-05-07T13:48:19;21.80;99.90
3488;DHT22;38546;48.170;11.724;2023-05-07T13:51:08;22.00;99.90
3488;DHT22;38546;48.170;11.724;2023-05-07T13:53:58;21.70;99.90
3488;DHT22;38546;48.170;11.724;2023-05-07T13:56:48;22.10;99.90
3488;DHT22;38546;48.170;11.724;2023-05-07T13:59:37;22.30;99.90
3488;DHT22;38546;48.170;11.724;2023-05-07T14:02:26;22.40;99.90
3488;DHT22;38546;48.170;11.724;2023-05-07T14:05:16;22.20;99.90
3488;DHT22;38546;48.170;11.724;2023-05-07T14:08:05;22.40;99.90
3488;DHT22;38546;48.170;11.724;2023-05-07T14:10:56;22.30;99.90
3488;DHT22;38546;48.170;11.724;2023-05-07T14:13:45;22.20;99.90
3488;DHT22;38546;48.170;11.724;2023-05-07T14:16:34;22.50;99.90
3488;DHT22;38546;48.170;11.724;2023-05-07T14:19:24;22.40;99.90
3488;DHT22;38546;48.170;11.724;2023-05-07T14:22:14;22.30;99.90
3488;DHT22;38546;48.170;11.724;2023-05-07T14:25:05;22.50;99.90
3488;DHT22;38546;48.170;11.724;2023-05-07T14:27:55;22.90;99.90
3488;DHT22;38546;48.170;11.724;2023-05-07T14:30:45;23.20;99.90
3488;DHT22;38546;48.170;11.724;2023-05-07T14:33:35;23.30;99.90
3488;DHT22;38546;48.170;11.724;2023-05-07T14:36:24;22.40;99.90
3488;DHT22;38546;48.170;11.724;2023-05-07T14:39:14;22.40;99.90
3488;DHT22;38546;48.170;11.724;2023-05-07T14:42:04;22.30;99.90
3488;DHT22;38546;48.170;11.724;2023-05-07T14:44:53;22.20;99.90
3488;DHT22;38546;48.170;11.724;2023-05-07T14:47:42;22.10;99.90
3488;DHT22;38546;48.170;11.724;2023-05-07T14:50:32;21.90;99.90
3488;DHT22;38546;48.170;11.724;2023-05-07T14:53:21;22.40;99.90
3488;DHT22;38546;48.170;11.724;2023-05-07T14:56:10;22.20;99.90
3488;DHT22;38546;48.170;11.724;2023-05-07T14:58:59;22.00;99.90
3488;DHT22;38546;48.170;11.724;2023-05-07T15:01:49;21.60;99.90
3488;DHT22;38546;48.170;11.724;2023-05-07T15:04:38;21.60;99.90
3488;DHT22;38546;48.170;11.724;2023-05-07T15:07:34;21.80;99.90
3488;DHT22;38546;48.170;11.724;2023-05-07T15:10:23;21.60;99.90
3488;DHT22;38546;48.170;11.724;2023-05-07T15:13:13;21.70;99.90
3488;DHT22;38546;48.170;11.724;2023-05-07T15:16:02;21.70;99.90
3488;DHT22;38546;48.170;11.724;2023-05-07T15:18:52;21.70;99.90
3488;DHT22;38546;48.170;11.724;2023-05-07T15:21:41;21.60;99.90
3488;DHT22;38546;48.170;11.724;2023-05-07T15:24:31;21.60;99.90
3488;DHT22;38546;48.170;11.724;2023-05-07T15:27:20;21.40;99.90
3488;DHT22;38546;48.170;11.724;2023-05-07T15:30:10;21.20;99.90
3488;DHT22;38546;48.170;11.724;2023-05-07T15:33:01;21.30;99.90
3488;DHT22;38546;48.170;11.724;2023-05-07T15:35:51;21.30;99.90
3488;DHT22;38546;48.170;11.724;2023-05-07T15:38:41;21.50;99.90
3488;DHT22;38546;48.170;11.724;2023-05-07T15:41:30;21.40;99.90
3488;DHT22;38546;48.170;11.724;2023-05-07T15:44:19;21.30;99.90
3488;DHT22;38546;48.170;11.724;2023-05-07T15:47:08;21.10;99.90
3488;DHT22;38546;48.170;11.724;2023-05-07T15:49:57;21.10;99.90
3488;DHT22;38546;48.170;11.724;2023-05-07T15:52:46;20.90;99.90
3488;DHT22;38546;48.170;11.724;2023-05-07T15:55:35;20.90;99.90
3488;DHT22;38546;48.170;11.724;2023-05-07T15:58:26;20.80;99.90
3488;DHT22;38546;48.170;11.724;2023-05-07T16:01:14;20.70;99.90
3488;DHT22;38546;48.170;11.724;2023-05-07T16:04:05;20.60;99.90
3488;DHT22;38546;48.170;11.724;2023-05-07T16:06:55;20.80;99.90
3488;DHT22;38546;48.170;11.724;2023-05-07T16:09:44;20.90;99.90
3488;DHT22;38546;48.170;11.724;2023-05-07T16:12:34;20.90;99.90
3488;DHT22;38546;48.170;11.724;2023-05-07T16:15:23;20.80;99.90
3488;DHT22;38546;48.170;11.724;2023-05-07T16:18:13;20.80;99.90
3488;DHT22;38546;48.170;11.724;2023-05-07T16:21:05;20.70;99.90
3488;DHT22;38546;48.170;11.724;2023-05-07T16:23:54;20.40;99.90
3488;DHT22;38546;48.170;11.724;2023-05-07T16:26:43;20.40;99.90
3488;DHT22;38546;48.170;11.724;2023-05-07T16:29:32;20.30;99.90
3488;DHT22;38546;48.170;11.724;2023-05-07T16:32:21;20.20;99.90
3488;DHT22;38546;48.170;11.724;2023-05-07T16:35:10;20.20;99.90
3488;DHT22;38546;48.170;11.724;2023-05-07T16:37:59;20.40;99.90
3488;DHT22;38546;48.170;11.724;2023-05-07T16:40:48;20.20;99.90
3488;DHT22;38546;48.170;11.724;2023-05-07T16:43:37;20.10;99.90
3488;DHT22;38546;48.170;11.724;2023-05-07T16:46:26;20.10;99.90
3488;DHT22;38546;48.170;11.724;2023-05-07T16:49:16;20.30;99.90
3488;DHT22;38546;48.170;11.724;2023-05-07T16:52:05;20.40;99.90
3488;DHT22;38546;48.170;11.724;2023-05-07T16:54:55;20.30;99.90
3488;DHT22;38546;48.170;11.724;2023-05-07T16:57:48;20.10;99.90
3488;DHT22;38546;48.170;11.724;2023-05-07T17:00:38;19.90;99.90
3488;DHT22;38546;48.170;11.724;2023-05-07T17:03:28;20.00;99.90
3488;DHT22;38546;48.170;11.724;2023-05-07T17:06:17;19.90;99.90
3488;DHT22;38546;48.170;11.724;2023-05-07T17:09:07;20.00;99.90
3488;DHT22;38546;48.170;11.724;2023-05-07T17:11:57;20.10;99.90
3488;DHT22;38546;48.170;11.724;2023-05-07T17:14:46;20.10;99.90
3488;DHT22;38546;48.170;11.724;2023-05-07T17:17:35;20.00;99.90
3488;DHT22;38546;48.170;11.724;2023-05-07T17:20:24;20.20;99.90
3488;DHT22;38546;48.170;11.724;2023-05-07T17:23:13;20.10;99.90
3488;DHT22;38546;48.170;11.724;2023-05-07T17:26:03;19.40;99.90
3488;DHT22;38546;48.170;11.724;2023-05-07T17:28:52;19.30;99.90
3488;DHT22;38546;48.170;11.724;2023-05-07T17:31:41;19.20;99.90
3488;DHT22;38546;48.170;11.724;2023-05-07T17:34:30;19.30;99.90
3488;DHT22;38546;48.170;11.724;2023-05-07T17:37:20;19.30;99.90
3488;DHT22;38546;48.170;11.724;2023-05-07T17:40:09;19.20;99.90
3488;DHT22;38546;48.170;11.724;2023-05-07T17:42:59;19.40;99.90
3488;DHT22;38546;48.170;11.724;2023-05-07T17:45:49;19.10;99.90
3488;DHT22;38546;48.170;11.724;2023-05-07T17:48:39;19.10;99.90
3488;DHT22;38546;48.170;11.724;2023-05-07T17:51:28;19.20;99.90
3488;DHT22;38546;48.170;11.724;2023-05-07T17:54:17;19.00;99.90
3488;DHT22;38546;48.170;11.724;2023-05-07T17:57:06;18.90;99.90
3488;DHT22;38546;48.170;11.724;2023-05-07T17:59:59;18.90;99.90